createdAt,value
2019-04-14T00:02:31.716Z,10.68
2019-04-14T00:05:01.790Z,8.88
2019-04-14T00:07:30.355Z,8.63
2019-04-14T00:10:02.952Z,7.83
2019-04-14T00:12:31.663Z,10.40
2019-04-14T00:14:59.866Z,9.10
2019-04-14T00:17:28.333Z,8.98
2019-04-14T00:19:56.649Z,8.38
2019-04-14T00:22:27.557Z,9.70
2019-04-14T00:24:55.357Z,8.95
2019-04-14T00:27:23.879Z,11.35
2019-04-14T00:29:52.820Z,8.75
2019-04-14T00:32:22.687Z,7.47
2019-04-14T00:35:06.316Z,7.22
2019-04-14T00:37:42.482Z,7.83
2019-04-14T00:40:19.307Z,7.55
2019-04-14T00:43:07.395Z,8.58
2019-04-14T00:45:48.214Z,10.45
2019-04-14T00:48:17.531Z,10.23
2019-04-14T00:50:43.831Z,9.65
2019-04-14T00:53:12.145Z,8.45
2019-04-14T00:55:40.551Z,8.65
2019-04-14T00:58:08.554Z,6.95
2019-04-14T01:00:36.463Z,6.92
2019-04-14T01:03:04.788Z,7.60
2019-04-14T01:05:34.398Z,8.00
2019-04-14T01:08:03.112Z,7.22
2019-04-14T01:10:30.650Z,6.92
2019-04-14T01:12:58.200Z,7.85
2019-04-14T01:15:26.741Z,7.45
2019-04-14T01:17:54.979Z,8.90
2019-04-14T01:20:23.205Z,9.88
2019-04-14T01:22:51.008Z,9.15
2019-04-14T01:25:19.266Z,9.48
2019-04-14T01:28:06.862Z,9.13
2019-04-14T01:30:35.129Z,7.78
2019-04-14T01:33:03.333Z,6.72
2019-04-14T01:35:31.433Z,7.65
2019-04-14T01:37:59.433Z,6.75
2019-04-14T01:40:29.200Z,7.50
2019-04-14T01:42:57.323Z,6.90
2019-04-14T01:45:25.334Z,6.37
2019-04-14T01:47:53.379Z,7.15
2019-04-14T01:50:25.567Z,7.47
2019-04-14T01:52:59.576Z,10.15
2019-04-14T01:56:05.647Z,10.95
2019-04-14T01:58:49.040Z,7.40
2019-04-14T02:01:21.723Z,7.03
2019-04-14T02:03:49.958Z,6.85
2019-04-14T02:06:18.051Z,7.15
2019-04-14T02:08:45.894Z,6.30
2019-04-14T02:11:15.764Z,7.03
2019-04-14T02:13:44.257Z,7.92
2019-04-14T02:16:22.985Z,9.58
2019-04-14T02:18:42.624Z,10.38
2019-04-14T02:21:12.850Z,10.63
2019-04-14T02:23:41.203Z,9.00
2019-04-14T02:26:09.215Z,9.80
2019-04-14T02:28:39.573Z,10.78
2019-04-14T02:31:17.713Z,9.23
2019-04-14T02:33:58.769Z,7.55
2019-04-14T02:36:41.745Z,7.22
2019-04-14T02:39:08.625Z,7.20
2019-04-14T02:41:35.736Z,7.05
2019-04-14T02:44:04.625Z,7.62
2019-04-14T02:46:39.979Z,7.22
2019-04-14T02:49:08.305Z,7.37
2019-04-14T02:51:33.681Z,8.83
2019-04-14T02:54:09.949Z,10.70
2019-04-14T02:56:30.881Z,10.25
2019-04-14T02:59:01.789Z,10.28
2019-04-14T03:01:31.667Z,10.85
2019-04-14T03:04:16.289Z,10.95
2019-04-14T03:06:26.046Z,10.63
2019-04-14T03:11:31.189Z,7.70
2019-04-14T03:14:01.291Z,7.17
2019-04-14T03:19:06.449Z,7.72
2019-04-14T03:22:37.246Z,8.35
2019-04-14T03:24:57.201Z,10.80
2019-04-14T03:30:46.231Z,8.08
2019-04-14T03:37:50.747Z,7.45
2019-04-14T03:40:18.599Z,7.50
2019-04-14T03:42:43.831Z,9.08
2019-04-14T03:45:14.428Z,10.23
2019-04-14T03:47:42.042Z,10.48
2019-04-14T03:50:16.110Z,12.40
2019-04-14T03:52:49.767Z,10.88
2019-04-14T03:55:09.448Z,11.33
2019-04-14T03:57:19.306Z,10.30
2019-04-14T03:59:47.785Z,9.83
2019-04-14T04:02:16.094Z,8.70
2019-04-14T04:04:44.505Z,7.95
2019-04-14T04:07:12.641Z,7.95
2019-04-14T04:09:49.690Z,7.67
2019-04-14T04:12:18.239Z,6.85
2019-04-14T04:14:46.394Z,7.33
2019-04-14T04:17:36.188Z,8.10
2019-04-14T04:20:39.141Z,10.95
2019-04-14T04:23:27.086Z,9.50
2019-04-14T04:26:14.711Z,8.73
2019-04-14T04:28:58.858Z,7.78
2019-04-14T04:31:46.124Z,11.20
2019-04-14T04:34:33.815Z,12.88
2019-04-14T04:37:08.386Z,10.53
2019-04-14T04:39:39.684Z,7.92
2019-04-14T04:42:09.008Z,7.95
2019-04-14T04:44:37.664Z,8.08
2019-04-14T04:47:05.704Z,8.08
2019-04-14T04:49:34.212Z,7.25
2019-04-14T04:52:01.808Z,8.23
2019-04-14T04:54:30.127Z,7.55
2019-04-14T04:56:58.330Z,8.23
2019-04-14T04:59:25.675Z,10.25
2019-04-14T05:01:53.847Z,11.75
2019-04-14T05:04:22.006Z,12.80
2019-04-14T05:06:59.454Z,12.65
2019-04-14T05:09:44.846Z,11.60
2019-04-14T05:12:26.781Z,8.83
2019-04-14T05:15:05.246Z,8.15
2019-04-14T05:17:33.994Z,7.50
2019-04-14T05:20:03.168Z,7.75
2019-04-14T05:22:31.336Z,9.00
2019-04-14T05:24:59.288Z,8.05
2019-04-14T05:27:27.627Z,9.90
2019-04-14T05:29:55.909Z,13.08
2019-04-14T05:32:23.993Z,12.35
2019-04-14T05:34:52.162Z,12.68
2019-04-14T05:37:20.379Z,12.75
2019-04-14T05:39:48.432Z,12.15
2019-04-14T05:42:20.145Z,11.22
2019-04-14T05:44:47.129Z,9.43
2019-04-14T05:47:15.337Z,8.58
2019-04-14T05:49:46.826Z,8.08
2019-04-14T05:52:12.045Z,7.87
2019-04-14T05:54:40.442Z,7.85
2019-04-14T05:57:08.716Z,7.45
2019-04-14T05:59:37.442Z,8.43
2019-04-14T06:02:04.907Z,7.08
2019-04-14T06:04:33.191Z,7.75
2019-04-14T06:07:02.572Z,8.93
2019-04-14T06:09:30.168Z,10.15
2019-04-14T06:11:58.713Z,11.65
2019-04-14T06:14:25.852Z,12.53
2019-04-14T06:16:53.370Z,12.68
2019-04-14T06:19:20.726Z,11.83
2019-04-14T06:21:48.205Z,12.13
2019-04-14T06:24:15.587Z,10.58
2019-04-14T06:26:43.019Z,10.98
2019-04-14T06:29:10.208Z,9.43
2019-04-14T06:31:56.097Z,8.25
2019-04-14T06:34:34.889Z,7.42
2019-04-14T06:37:06.800Z,8.40
2019-04-14T06:39:37.690Z,7.95
2019-04-14T06:42:05.537Z,8.93
2019-04-14T06:44:33.515Z,12.25
2019-04-14T06:47:01.271Z,10.18
2019-04-14T06:49:28.287Z,12.63
2019-04-14T06:51:55.371Z,11.15
2019-04-14T06:54:22.692Z,12.07
2019-04-14T06:56:50.152Z,13.22
2019-04-14T06:59:17.252Z,13.05
2019-04-14T07:01:44.400Z,10.48
2019-04-14T07:04:11.697Z,9.70
2019-04-14T07:06:39.338Z,8.78
2019-04-14T07:09:06.734Z,8.40
2019-04-14T07:11:34.786Z,9.23
2019-04-14T07:14:02.778Z,9.85
2019-04-14T07:16:30.393Z,10.35
2019-04-14T07:18:57.917Z,9.60
2019-04-14T07:21:25.404Z,10.05
2019-04-14T07:23:53.832Z,10.32
2019-04-14T07:26:21.109Z,11.00
2019-04-14T07:28:56.473Z,13.05
2019-04-14T07:31:52.511Z,13.95
2019-04-14T07:34:31.789Z,13.18
2019-04-14T07:37:21.551Z,10.82
2019-04-14T07:40:11.940Z,10.45
2019-04-14T07:43:04.890Z,11.43
2019-04-14T07:45:47.934Z,14.00
2019-04-14T07:48:34.979Z,14.53
2019-04-14T07:51:21.372Z,10.15
2019-04-14T07:53:52.349Z,10.23
2019-04-14T07:56:30.797Z,10.08
2019-04-14T07:59:17.121Z,11.48
2019-04-14T08:02:03.559Z,13.53
2019-04-14T08:04:33.965Z,13.88
2019-04-14T08:07:01.658Z,12.80
2019-04-14T08:09:29.373Z,10.80
2019-04-14T08:11:57.221Z,10.20
2019-04-14T08:14:25.580Z,10.95
2019-04-14T08:16:53.169Z,9.93
2019-04-14T08:19:21.717Z,9.88
2019-04-14T08:21:49.018Z,9.95
2019-04-14T08:24:16.836Z,9.95
2019-04-14T08:26:44.034Z,9.98
2019-04-14T08:29:11.410Z,10.28
2019-04-14T08:31:38.525Z,11.43
2019-04-14T08:34:05.819Z,12.55
2019-04-14T08:36:33.690Z,13.68
2019-04-14T08:39:01.115Z,12.40
2019-04-14T08:41:31.894Z,14.23
2019-04-14T08:44:16.671Z,14.13
2019-04-14T08:47:02.859Z,12.05
2019-04-14T08:49:41.085Z,10.28
2019-04-14T08:52:24.050Z,10.63
2019-04-14T08:55:10.304Z,10.10
2019-04-14T08:58:04.259Z,14.30
2019-04-14T09:00:51.946Z,14.68
2019-04-14T09:03:39.073Z,10.90
2019-04-14T09:06:38.516Z,10.50
2019-04-14T09:09:31.344Z,12.45
2019-04-14T09:12:14.544Z,14.45
2019-04-14T09:14:31.867Z,15.20
2019-04-14T09:16:59.892Z,14.18
2019-04-14T09:19:27.287Z,12.28
2019-04-14T09:21:54.971Z,10.88
2019-04-14T09:24:23.169Z,11.57
2019-04-14T09:26:50.332Z,10.82
2019-04-14T09:29:18.712Z,10.88
2019-04-14T09:31:46.106Z,10.10
2019-04-14T09:34:15.632Z,11.03
2019-04-14T09:36:42.738Z,11.40
2019-04-14T09:39:09.964Z,10.50
2019-04-14T09:41:36.977Z,11.25
2019-04-14T09:44:04.474Z,13.18
2019-04-14T09:46:32.013Z,14.23
2019-04-14T09:48:59.900Z,14.15
2019-04-14T09:51:26.943Z,14.98
2019-04-14T09:53:53.970Z,14.55
2019-04-14T09:56:21.299Z,14.05
2019-04-14T09:58:48.343Z,14.20
2019-04-14T10:01:15.470Z,14.83
2019-04-14T10:03:42.677Z,13.32
2019-04-14T10:06:11.914Z,9.90
2019-04-14T10:08:39.677Z,10.65
2019-04-14T10:11:07.792Z,10.72
2019-04-14T10:13:35.642Z,10.80
2019-04-14T10:16:02.948Z,11.63
2019-04-14T10:18:30.048Z,9.63
2019-04-14T10:20:57.055Z,10.78
2019-04-14T10:23:24.195Z,10.68
2019-04-14T10:25:51.198Z,11.33
2019-04-14T10:28:18.425Z,11.43
2019-04-14T10:30:45.599Z,12.50
2019-04-14T10:33:12.733Z,13.78
2019-04-14T10:35:40.451Z,13.90
2019-04-14T10:38:08.317Z,14.47
2019-04-14T10:40:35.623Z,12.70
2019-04-14T10:43:03.181Z,14.23
2019-04-14T10:45:30.779Z,14.90
2019-04-14T10:47:58.391Z,15.32
2019-04-14T10:50:30.959Z,13.58
2019-04-14T10:52:54.978Z,11.55
2019-04-14T10:55:22.662Z,11.97
2019-04-14T10:57:50.623Z,10.75
2019-04-14T11:00:18.694Z,11.75
2019-04-14T11:02:46.077Z,10.90
2019-04-14T11:05:13.400Z,11.55
2019-04-14T11:07:40.859Z,11.95
2019-04-14T11:10:09.561Z,11.75
2019-04-14T11:12:37.061Z,11.30
2019-04-14T11:15:05.171Z,14.23
2019-04-14T11:17:32.264Z,12.90
2019-04-14T11:19:59.772Z,15.40
2019-04-14T11:22:27.243Z,15.45
2019-04-14T11:24:56.442Z,14.55
2019-04-14T11:27:24.155Z,15.88
2019-04-14T11:29:53.934Z,18.32
2019-04-14T11:32:43.251Z,16.17
2019-04-14T11:35:28.843Z,14.78
2019-04-14T11:38:18.305Z,17.17
2019-04-14T11:40:48.160Z,20.17
2019-04-14T11:43:15.662Z,21.40
2019-04-14T11:45:42.904Z,19.50
2019-04-14T11:48:10.023Z,18.32
2019-04-14T11:50:37.153Z,16.00
2019-04-14T11:53:04.495Z,18.07
2019-04-14T11:55:32.046Z,16.10
2019-04-14T11:57:59.233Z,18.17
2019-04-14T12:00:38.450Z,15.10
2019-04-14T12:03:25.106Z,18.67
2019-04-14T12:06:12.605Z,18.62
2019-04-14T12:08:55.015Z,16.07
2019-04-14T12:11:22.457Z,15.18
2019-04-14T12:13:49.874Z,17.80
2019-04-14T12:16:19.092Z,17.05
2019-04-14T12:18:46.986Z,19.55
2019-04-14T12:21:15.158Z,19.77
2019-04-14T12:23:42.598Z,18.73
2019-04-14T12:26:10.139Z,20.27
2019-04-14T12:28:38.322Z,26.95
2019-04-14T12:31:06.509Z,25.75
2019-04-14T12:33:35.165Z,21.25
2019-04-14T12:36:03.612Z,25.30
2019-04-14T12:38:31.179Z,23.37
2019-04-14T12:41:00.975Z,19.00
2019-04-14T12:43:42.222Z,16.35
2019-04-14T12:46:36.196Z,22.85
2019-04-14T12:49:19.913Z,21.42
2019-04-14T12:52:05.681Z,19.85
2019-04-14T12:54:33.267Z,24.33
2019-04-14T12:57:01.123Z,17.45
2019-04-14T12:59:28.763Z,15.23
2019-04-14T13:02:16.003Z,18.52
2019-04-14T13:04:43.564Z,19.27
2019-04-14T13:07:10.691Z,17.12
2019-04-14T13:09:38.394Z,14.85
2019-04-14T13:12:05.665Z,16.85
2019-04-14T13:14:32.913Z,15.00
2019-04-14T13:16:59.930Z,16.20
2019-04-14T13:19:27.264Z,16.65
2019-04-14T13:21:54.688Z,15.50
2019-04-14T13:24:22.214Z,13.93
2019-04-14T13:26:50.744Z,13.18
2019-04-14T13:29:18.275Z,12.05
2019-04-14T13:31:46.345Z,11.10
2019-04-14T13:34:13.451Z,11.48
2019-04-14T13:36:41.001Z,11.88
2019-04-14T13:39:08.628Z,12.50
2019-04-14T13:41:36.941Z,10.95
2019-04-14T13:44:05.003Z,11.85
2019-04-14T13:46:33.917Z,12.45
2019-04-14T13:49:02.788Z,11.33
2019-04-14T13:51:30.162Z,13.60
2019-04-14T13:53:57.591Z,12.50
2019-04-14T13:56:24.782Z,12.40
2019-04-14T13:58:52.218Z,12.45
2019-04-14T14:01:19.498Z,12.65
2019-04-14T14:03:46.821Z,14.33
2019-04-14T14:06:14.149Z,13.10
2019-04-14T14:08:41.753Z,13.95
2019-04-14T14:11:16.987Z,12.47
2019-04-14T14:13:49.189Z,12.15
2019-04-14T14:16:27.029Z,11.57
2019-04-14T14:19:01.795Z,11.33
2019-04-14T14:21:45.001Z,11.75
2019-04-14T14:24:46.989Z,11.70
2019-04-14T14:27:14.220Z,11.60
2019-04-14T14:29:41.471Z,12.98
2019-04-14T14:32:28.777Z,10.80
2019-04-14T14:34:56.844Z,10.80
2019-04-14T14:37:24.689Z,13.60
2019-04-14T14:39:52.741Z,9.90
2019-04-14T14:42:21.172Z,10.13
2019-04-14T14:45:04.403Z,11.68
2019-04-14T14:47:32.492Z,11.97
2019-04-14T14:50:18.985Z,14.47
2019-04-14T14:52:46.799Z,17.05
2019-04-14T14:55:13.912Z,14.30
2019-04-14T14:57:41.229Z,15.60
2019-04-14T15:00:14.657Z,15.60
2019-04-14T15:02:42.377Z,15.95
2019-04-14T15:05:09.739Z,11.53
2019-04-14T15:07:37.164Z,14.13
2019-04-14T15:10:04.440Z,13.18
2019-04-14T15:12:32.392Z,13.98
2019-04-14T15:14:59.970Z,15.32
2019-04-14T15:17:28.041Z,20.08
2019-04-14T15:19:55.993Z,21.00
2019-04-14T15:22:23.737Z,17.65
2019-04-14T15:24:51.970Z,20.80
2019-04-14T15:27:18.996Z,21.52
2019-04-14T15:29:46.650Z,18.67
2019-04-14T15:32:13.681Z,18.62
2019-04-14T15:34:40.804Z,16.85
2019-04-14T15:37:07.973Z,17.85
2019-04-14T15:39:37.616Z,17.15
2019-04-14T15:42:05.017Z,14.68
2019-04-14T15:44:32.297Z,15.65
2019-04-14T15:46:59.773Z,14.55
2019-04-14T15:49:27.131Z,14.83
2019-04-14T15:51:54.499Z,14.50
2019-04-14T15:54:25.311Z,20.85
2019-04-14T15:57:14.674Z,19.80
2019-04-14T15:59:48.710Z,15.53
2019-04-14T16:02:22.104Z,14.90
2019-04-14T16:05:18.806Z,16.15
2019-04-14T16:08:05.253Z,14.33
2019-04-14T16:10:52.253Z,20.15
2019-04-14T16:13:35.602Z,12.58
2019-04-14T16:16:37.826Z,13.48
2019-04-14T16:19:14.281Z,13.00
2019-04-14T16:21:41.293Z,13.85
2019-04-14T16:24:08.688Z,13.08
2019-04-14T16:26:58.602Z,13.98
2019-04-14T16:29:34.381Z,13.22
2019-04-14T16:32:07.003Z,16.17
2019-04-14T16:34:39.730Z,13.68
2019-04-14T16:37:07.600Z,12.25
2019-04-14T16:39:35.690Z,16.23
2019-04-14T16:42:02.702Z,14.35
2019-04-14T16:44:30.651Z,16.27
2019-04-14T16:46:58.522Z,13.48
2019-04-14T16:49:25.832Z,12.03
2019-04-14T16:51:56.429Z,12.15
2019-04-14T16:54:41.490Z,16.57
2019-04-14T16:57:29.193Z,19.95
2019-04-14T16:59:57.176Z,11.35
2019-04-14T17:02:24.557Z,10.03
2019-04-14T17:04:51.789Z,11.05
2019-04-14T17:07:19.795Z,12.78
2019-04-14T17:09:47.631Z,13.00
2019-04-14T17:12:15.156Z,10.98
2019-04-14T17:14:48.118Z,11.53
2019-04-14T17:17:47.307Z,12.73
2019-04-14T17:20:34.468Z,12.37
2019-04-14T17:23:21.740Z,10.48
2019-04-14T17:25:54.613Z,16.07
2019-04-14T17:28:40.181Z,13.32
2019-04-14T17:31:15.333Z,13.13
2019-04-14T17:33:57.101Z,11.08
2019-04-14T17:36:30.900Z,13.15
2019-04-14T17:39:16.978Z,13.10
2019-04-14T17:42:03.868Z,11.10
2019-04-14T17:44:44.489Z,11.22
2019-04-14T17:47:47.007Z,12.90
2019-04-14T17:50:40.481Z,17.65
2019-04-14T17:53:08.402Z,10.95
2019-04-14T17:55:58.541Z,11.93
2019-04-14T17:58:43.583Z,10.58
2019-04-14T18:01:29.343Z,10.82
2019-04-14T18:04:19.343Z,13.03
2019-04-14T18:06:51.460Z,12.55
2019-04-14T18:09:37.304Z,13.10
2019-04-14T18:12:17.102Z,11.73
2019-04-14T18:14:58.198Z,18.42
2019-04-14T18:17:50.727Z,15.00
2019-04-14T18:20:21.814Z,15.25
2019-04-14T18:22:49.831Z,17.50
2019-04-14T18:25:17.430Z,26.02
2019-04-14T18:27:54.060Z,14.93
2019-04-14T18:30:26.113Z,20.72
2019-04-14T18:33:06.616Z,17.48
2019-04-14T18:35:44.919Z,17.55
2019-04-14T18:38:25.710Z,20.62
2019-04-14T18:41:01.554Z,21.60
2019-04-14T18:44:07.499Z,18.62
2019-04-14T18:47:00.990Z,23.32
2019-04-14T18:49:51.919Z,20.85
2019-04-14T18:52:29.890Z,26.20
2019-04-14T18:55:27.340Z,21.03
2019-04-14T18:58:14.413Z,24.35
2019-04-14T19:00:47.139Z,27.30
2019-04-14T19:03:15.083Z,23.42
2019-04-14T19:05:42.700Z,23.20
2019-04-14T19:08:10.526Z,25.50
2019-04-14T19:10:38.348Z,29.02
2019-04-14T19:13:18.348Z,27.42
2019-04-14T19:15:50.274Z,28.30
2019-04-14T19:18:30.296Z,31.05
2019-04-14T19:21:01.835Z,31.27
2019-04-14T19:23:31.883Z,26.52
2019-04-14T19:26:00.253Z,31.90
2019-04-14T19:28:27.303Z,31.27
2019-04-14T19:30:54.573Z,32.33
2019-04-14T19:33:22.752Z,24.52
2019-04-14T19:35:49.979Z,31.48
2019-04-14T19:38:17.805Z,30.82
2019-04-14T19:40:45.366Z,33.58
2019-04-14T19:43:23.147Z,32.78
2019-04-14T19:45:41.988Z,33.80
2019-04-14T19:48:09.420Z,33.95
2019-04-14T19:50:36.565Z,30.62
2019-04-14T19:53:03.851Z,44.15
2019-04-14T19:55:32.996Z,28.87
2019-04-14T19:58:01.937Z,31.90
2019-04-14T20:00:31.444Z,25.82
2019-04-14T20:03:00.427Z,25.00
2019-04-14T20:05:29.467Z,27.82
2019-04-14T20:07:58.270Z,33.28
2019-04-14T20:10:27.493Z,34.35
2019-04-14T20:12:57.505Z,24.15
2019-04-14T20:15:27.979Z,25.27
2019-04-14T20:18:10.871Z,29.65
2019-04-14T20:21:04.885Z,28.83
2019-04-14T20:23:41.151Z,27.48
2019-04-14T20:26:32.754Z,31.07
2019-04-14T20:29:06.241Z,26.30
2019-04-14T20:31:42.240Z,26.27
2019-04-14T20:34:11.442Z,18.75
2019-04-14T20:36:40.668Z,27.27
2019-04-14T20:39:13.709Z,32.50
2019-04-14T20:41:42.029Z,27.32
2019-04-14T20:44:09.094Z,25.17
2019-04-14T20:46:36.097Z,25.02
2019-04-14T20:49:03.671Z,29.57
2019-04-14T20:51:30.865Z,25.05
2019-04-14T20:53:58.411Z,25.72
2019-04-14T20:56:25.738Z,24.37
2019-04-14T20:58:52.877Z,22.52
2019-04-14T21:01:20.967Z,26.35
2019-04-14T21:04:02.548Z,20.75
2019-04-14T21:06:46.339Z,18.07
2019-04-14T21:09:33.462Z,18.52
2019-04-14T21:12:18.560Z,20.15
2019-04-14T21:15:09.560Z,18.67
2019-04-14T21:17:57.325Z,22.42
2019-04-14T21:20:40.697Z,18.87
2019-04-14T21:23:16.949Z,17.73
2019-04-14T21:26:00.693Z,18.60
2019-04-14T21:28:59.627Z,16.05
2019-04-14T21:31:32.851Z,16.80
2019-04-14T21:34:09.001Z,18.70
2019-04-14T21:37:03.825Z,20.00
2019-04-14T21:39:35.915Z,16.55
2019-04-14T21:42:02.895Z,15.93
2019-04-14T21:44:30.589Z,16.55
2019-04-14T21:46:58.360Z,14.35
2019-04-14T21:49:25.993Z,18.00
2019-04-14T21:52:06.591Z,14.43
2019-04-14T21:54:33.871Z,15.00
2019-04-14T21:57:24.625Z,15.38
2019-04-14T22:00:08.560Z,17.00
2019-04-14T22:03:07.309Z,16.73
2019-04-14T22:05:42.417Z,18.57
2019-04-14T22:08:25.280Z,14.50
2019-04-14T22:10:57.792Z,14.87
2019-04-14T22:13:25.214Z,11.95
2019-04-14T22:15:52.332Z,12.25
2019-04-14T22:18:19.854Z,11.60
2019-04-14T22:20:47.193Z,15.05
2019-04-14T22:23:14.182Z,13.10
2019-04-14T22:25:41.177Z,11.48
2019-04-14T22:28:08.563Z,11.75
2019-04-14T22:30:36.062Z,11.33
2019-04-14T22:33:03.788Z,10.50
2019-04-14T22:35:31.055Z,10.30
2019-04-14T22:37:58.366Z,15.72
2019-04-14T22:40:25.395Z,13.88
2019-04-14T22:42:53.211Z,11.00
2019-04-14T22:45:20.212Z,13.60
2019-04-14T22:47:47.449Z,13.00
2019-04-14T22:50:14.732Z,11.43
2019-04-14T22:52:41.776Z,11.97
2019-04-14T22:55:09.328Z,12.33
2019-04-14T22:57:36.589Z,9.30
2019-04-14T23:00:06.433Z,10.38
2019-04-14T23:02:53.414Z,13.75
2019-04-14T23:05:44.186Z,11.85
2019-04-14T23:08:41.589Z,9.98
2019-04-14T23:11:28.601Z,10.25
2019-04-14T23:14:24.665Z,9.78
2019-04-14T23:17:15.005Z,9.90
2019-04-14T23:19:50.548Z,9.35
2019-04-14T23:22:36.408Z,9.63
2019-04-14T23:25:03.777Z,9.53
2019-04-14T23:27:31.270Z,11.10
2019-04-14T23:29:58.553Z,8.85
2019-04-14T23:32:25.604Z,10.18
2019-04-14T23:34:52.657Z,8.90
2019-04-14T23:37:20.117Z,9.40
2019-04-14T23:39:47.307Z,9.53
2019-04-14T23:42:14.983Z,9.43
2019-04-14T23:44:42.342Z,9.30
2019-04-14T23:47:09.997Z,9.25
2019-04-14T23:49:37.309Z,9.05
2019-04-14T23:52:04.405Z,9.25
2019-04-14T23:54:32.035Z,8.35
2019-04-14T23:57:05.906Z,9.00
2019-04-14T23:59:31.048Z,8.60
